Mc Connell Air Force Base
KIAB : now visible

Airfield :











YOU CAN JOIN US ON...

 
LOGIN :

Register | Disclaimer

   EN    FR    IT 

 









Legend :    VFR   Marginal VFR   IFR   Intensive IFR   Very Intensive IFR
Visi :
Ceiling :
>= 8 km
>= 3000ft
5 to 8 km
1000 to 3000 ft
1500m to 5 km
500 to 1000 ft
800 to 1500m
200 to 500 ft
< 800m
< 200 ft
Symbols :   Thunderstorms  Fog  Heavy snow  Heavy precipitations  Wind > 20 kt






- Airport Elevation : 1371 ft
- IATA code : IAB


KIAB - Mc Connell Air Force Base

METAR N/A
TAF TAF KIAB
Valid from the 26 at 18:00 until the 28 at 00:00 UTC


261800Z 2618/2724 03009KT 9999 OVC015 QNH2996INS
BECMG 2623/2624 05006KT 9999 BKN050 QNH2996INS
BECMG 2703/2704 05010G15KT 3200 -SN BKN005 QNH2999INS
BECMG 2713/2714 34012KT 9999 NSW BKN010 QNH3006INS
BECMG 2715/2716 34009KT 9999 SCT020 QNH3021INS TX01/2621Z TNM05/2714Z
KZKC FIR / North America



MET'MAP, your aeronautical weather chart ! - Copyright ORBIFLY December 2007 - Disclaimer

ORBIFLY MET'MAP TEAM :

Programming & Development : Alexandra Zaïnal
Concept & original design : Baudouin d'Aumeries
Assistance for programming : Marc-Olivier Méhu
Technical & hardware support : Manuel Goepfert

Contact : metmap@orbifly.com




SOURCES & CREDITS :

   NOAA       Earth
Advisory